Time;durP1;ratioP1;P1;durP2;ratioP2;P2;SDS_P1;SDS_P2;PMS_P1;PMS_P2;Temp;Humidity;BMP_temperature;BMP_pressure;BME280_temperature;BME280_humidity;BME280_pressure;Samples;Min_cycle;Max_cycle;Signal;HPM_P1;HPM_P2
2022/06/21 00:00:44;;;;;;;5.50;1.70;;;13.00;99.90;;;;;;5047213;28;21063;-78
2022/06/21 00:03:13;;;;;;;7.53;2.20;;;12.90;99.90;;;;;;5047252;28;20037;-79
2022/06/21 00:05:42;;;;;;;4.55;1.70;;;13.00;99.90;;;;;;5045605;28;20049;-78
2022/06/21 00:08:14;;;;;;;6.32;2.50;;;12.80;99.90;;;;;;5048565;28;20403;-79
2022/06/21 00:10:41;;;;;;;6.80;1.80;;;12.70;99.90;;;;;;5048739;28;20332;-79
2022/06/21 00:13:11;;;;;;;9.77;2.13;;;12.70;99.90;;;;;;5047534;28;20044;-78
2022/06/21 00:15:38;;;;;;;6.28;1.95;;;12.70;99.90;;;;;;5046033;28;20056;-78
2022/06/21 00:18:04;;;;;;;6.78;2.10;;;12.70;99.90;;;;;;5045800;28;20399;-78
2022/06/21 00:20:30;;;;;;;9.73;2.60;;;12.70;99.90;;;;;;5047835;28;20032;-78
2022/06/21 00:22:56;;;;;;;9.38;2.10;;;12.60;99.90;;;;;;5048080;28;20505;-79
2022/06/21 00:25:25;;;;;;;4.68;2.03;;;12.70;99.90;;;;;;5045750;28;20048;-78
2022/06/21 00:27:54;;;;;;;7.47;2.35;;;12.60;99.90;;;;;;5046735;28;20515;-78
2022/06/21 00:30:21;;;;;;;5.85;2.00;;;12.60;99.90;;;;;;5050347;28;20052;-79
2022/06/21 00:32:49;;;;;;;10.32;2.08;;;12.50;99.90;;;;;;5050863;28;20049;-78
2022/06/21 00:35:18;;;;;;;3.72;1.63;;;12.40;99.90;;;;;;5049607;28;20123;-79
2022/06/21 00:37:44;;;;;;;6.15;1.70;;;12.30;99.90;;;;;;5049489;28;20079;-79
2022/06/21 00:40:22;;;;;;;6.38;1.90;;;12.30;99.90;;;;;;5037663;28;20037;-79
2022/06/21 00:42:58;;;;;;;5.68;1.90;;;12.30;99.90;;;;;;5045487;28;20430;-79
2022/06/21 00:45:39;;;;;;;4.07;1.83;;;12.20;99.90;;;;;;5048962;28;20041;-78
2022/06/21 00:48:13;;;;;;;6.68;2.13;;;12.20;99.90;;;;;;5052619;28;20033;-78
2022/06/21 00:51:01;;;;;;;6.80;2.30;;;12.20;99.90;;;;;;5049660;28;20084;-79
2022/06/21 00:53:33;;;;;;;6.57;2.20;;;12.20;99.90;;;;;;5013542;28;20124;-79
2022/06/21 00:56:21;;;;;;;6.45;3.08;;;12.30;99.90;;;;;;5046404;28;20053;-78
2022/06/21 00:58:47;;;;;;;6.97;2.58;;;12.10;99.90;;;;;;5049316;28;20396;-80
2022/06/21 01:01:29;;;;;;;8.80;2.55;;;12.10;99.90;;;;;;5053000;28;20044;-79
2022/06/21 01:04:28;;;;;;;11.43;2.42;;;12.00;99.90;;;;;;5043397;28;20044;-78
2022/06/21 01:06:57;;;;;;;6.40;2.28;;;11.90;99.90;;;;;;5039895;28;20088;-79
2022/06/21 01:09:46;;;;;;;5.93;2.35;;;11.90;99.90;;;;;;5051193;28;20053;-78
2022/06/21 01:12:18;;;;;;;6.20;2.20;;;11.90;99.90;;;;;;5043192;28;20052;-78
2022/06/21 01:14:55;;;;;;;8.35;2.78;;;11.90;99.90;;;;;;5049887;28;20033;-78
2022/06/21 01:17:21;;;;;;;4.65;2.30;;;11.90;99.90;;;;;;5049229;28;20507;-78
2022/06/21 01:19:55;;;;;;;8.23;2.42;;;11.90;99.90;;;;;;5049238;28;20124;-78
2022/06/21 01:22:39;;;;;;;7.90;2.50;;;11.80;99.90;;;;;;5052094;28;20052;-79
2022/06/21 01:25:35;;;;;;;6.28;2.55;;;11.70;99.90;;;;;;5051690;28;20037;-79
2022/06/21 01:28:02;;;;;;;4.47;2.55;;;11.60;99.90;;;;;;5045925;28;20041;-79
2022/06/21 01:30:28;;;;;;;6.18;2.05;;;11.70;99.90;;;;;;5048549;28;20041;-79
2022/06/21 01:32:58;;;;;;;8.82;2.67;;;11.70;99.90;;;;;;5049940;28;20037;-79
2022/06/21 01:35:52;;;;;;;9.13;2.35;;;11.70;99.90;;;;;;5051477;28;20049;-79
2022/06/21 01:38:25;;;;;;;5.32;2.38;;;11.60;99.90;;;;;;5045395;28;20052;-79
2022/06/21 01:40:55;;;;;;;5.07;2.20;;;11.50;99.90;;;;;;5051220;28;20048;-79
2022/06/21 01:43:26;;;;;;;7.00;2.35;;;11.60;99.90;;;;;;5051094;28;20067;-79
2022/06/21 01:45:57;;;;;;;6.38;2.58;;;11.50;99.90;;;;;;5049362;28;20093;-79
2022/06/21 01:48:26;;;;;;;4.30;2.20;;;11.60;99.90;;;;;;5050367;28;20053;-78
2022/06/21 01:50:56;;;;;;;7.72;2.35;;;11.60;99.90;;;;;;5049854;28;20049;-79
2022/06/21 01:53:23;;;;;;;6.45;2.28;;;11.60;99.90;;;;;;5049282;28;20052;-79
2022/06/21 01:56:00;;;;;;;6.63;2.70;;;11.60;99.90;;;;;;5049157;28;20048;-79
2022/06/21 01:58:30;;;;;;;3.83;1.77;;;11.50;99.90;;;;;;5050239;28;20041;-78
2022/06/21 02:00:59;;;;;;;4.78;2.13;;;11.50;99.90;;;;;;5049843;28;20538;-78
2022/06/21 02:03:32;;;;;;;3.45;2.08;;;11.40;99.90;;;;;;5051480;28;20518;-79
2022/06/21 02:06:02;;;;;;;3.28;1.80;;;11.40;99.90;;;;;;5050716;28;20076;-78
2022/06/21 02:08:42;;;;;;;3.00;1.75;;;11.40;99.90;;;;;;5050459;28;20044;-79
2022/06/21 02:11:23;;;;;;;4.40;2.08;;;11.30;99.90;;;;;;5052954;28;20372;-79
2022/06/21 02:16:46;;;;;;;6.43;2.30;;;11.10;99.90;;;;;;5052434;28;20048;-79
2022/06/21 02:19:34;;;;;;;3.25;1.90;;;11.10;99.90;;;;;;5050277;28;20048;-79
2022/06/21 02:22:01;;;;;;;3.15;1.58;;;11.10;99.90;;;;;;5051412;28;20372;-78
2022/06/21 02:24:29;;;;;;;5.35;2.13;;;11.10;99.90;;;;;;5047819;28;20040;-80
2022/06/21 02:26:56;;;;;;;5.95;2.33;;;11.10;99.90;;;;;;5049298;28;20049;-79
2022/06/21 02:29:22;;;;;;;6.50;2.75;;;10.90;99.90;;;;;;5050798;28;20525;-79
2022/06/21 02:31:49;;;;;;;5.82;2.65;;;11.00;99.90;;;;;;5050058;28;20047;-79
2022/06/21 02:34:33;;;;;;;5.55;2.70;;;11.00;99.90;;;;;;5050899;28;20060;-79
2022/06/21 02:37:01;;;;;;;6.28;2.40;;;11.00;99.90;;;;;;5050984;28;20494;-79
2022/06/21 02:39:29;;;;;;;6.55;2.58;;;10.90;99.90;;;;;;5050944;28;20044;-78
2022/06/21 02:42:22;;;;;;;3.58;2.40;;;10.90;99.90;;;;;;5050377;28;20062;-79
2022/06/21 02:44:52;;;;;;;5.45;2.47;;;10.90;99.90;;;;;;5048090;28;20029;-79
2022/06/21 02:47:24;;;;;;;5.45;2.78;;;10.80;99.90;;;;;;5052971;28;20048;-79
2022/06/21 02:49:58;;;;;;;4.82;2.60;;;10.90;99.90;;;;;;5044621;28;20045;-79
2022/06/21 02:52:33;;;;;;;6.45;2.60;;;10.90;99.90;;;;;;5050246;28;20041;-79
2022/06/21 02:55:25;;;;;;;9.40;3.25;;;10.90;99.90;;;;;;5049674;28;20036;-79
2022/06/21 02:58:23;;;;;;;6.40;2.72;;;11.00;99.90;;;;;;5042159;28;20052;-79
2022/06/21 03:00:51;;;;;;;6.68;3.00;;;11.00;99.90;;;;;;5041227;28;20037;-79
2022/06/21 03:03:20;;;;;;;6.50;3.38;;;11.00;99.90;;;;;;5049915;28;20045;-80
2022/06/21 03:05:52;;;;;;;7.82;3.08;;;11.10;99.90;;;;;;5066750;28;20526;-79
2022/06/21 03:08:18;;;;;;;3.90;2.70;;;11.20;99.90;;;;;;5051813;28;20056;-79
2022/06/21 03:10:47;;;;;;;7.63;2.85;;;11.20;99.90;;;;;;5050217;28;20041;-79
2022/06/21 03:13:21;;;;;;;7.90;3.55;;;11.20;99.90;;;;;;5049656;28;20041;-79
2022/06/21 03:16:02;;;;;;;5.38;3.10;;;11.20;99.90;;;;;;5049672;28;20037;-78
2022/06/21 03:18:34;;;;;;;6.20;3.03;;;11.20;99.90;;;;;;5052713;28;20040;-79
2022/06/21 03:21:03;;;;;;;6.20;2.85;;;11.30;99.90;;;;;;5052479;28;20040;-80
2022/06/21 03:23:29;;;;;;;7.07;3.20;;;11.30;99.90;;;;;;5050883;28;20048;-79
2022/06/21 03:26:01;;;;;;;5.88;3.05;;;11.20;99.90;;;;;;5050406;28;20044;-78
2022/06/21 03:28:31;;;;;;;7.18;3.55;;;11.30;99.90;;;;;;5051404;28;20088;-79
2022/06/21 03:31:05;;;;;;;5.50;2.90;;;11.30;99.90;;;;;;5052958;28;20491;-79
2022/06/21 03:33:32;;;;;;;7.13;3.50;;;11.30;99.90;;;;;;5052421;28;20072;-79
2022/06/21 03:35:58;;;;;;;7.65;3.40;;;11.40;99.90;;;;;;5050680;28;20055;-80
2022/06/21 03:38:24;;;;;;;6.60;3.40;;;11.40;99.90;;;;;;5051359;28;20048;-80
2022/06/21 03:43:50;;;;;;;6.40;3.28;;;11.40;99.90;;;;;;5052252;28;20119;-80
2022/06/21 03:46:22;;;;;;;6.60;3.25;;;11.40;99.90;;;;;;5051073;28;20140;-79
2022/06/21 03:48:59;;;;;;;5.80;3.55;;;11.50;99.90;;;;;;5052296;28;20044;-80
2022/06/21 03:51:38;;;;;;;8.60;3.55;;;11.50;99.90;;;;;;5051492;28;20372;-79
2022/06/21 03:54:12;;;;;;;6.10;3.58;;;11.60;99.90;;;;;;5049926;28;20069;-79
2022/06/21 03:57:15;;;;;;;7.78;3.45;;;11.70;99.90;;;;;;5050166;28;20099;-78
2022/06/21 03:59:50;;;;;;;7.35;3.80;;;11.70;99.90;;;;;;5049709;28;20048;-79
2022/06/21 04:02:31;;;;;;;6.22;3.53;;;11.70;99.90;;;;;;5050871;28;20510;-79
2022/06/21 04:05:03;;;;;;;6.78;3.90;;;11.80;99.90;;;;;;5054288;28;20076;-80
2022/06/21 04:07:34;;;;;;;5.50;3.65;;;11.80;99.90;;;;;;5054676;28;20099;-79
2022/06/21 04:10:40;;;;;;;11.93;4.38;;;11.90;99.90;;;;;;5054361;28;20049;-80
2022/06/21 04:13:34;;;;;;;6.60;4.03;;;12.00;99.90;;;;;;5053466;28;20059;-79
2022/06/21 04:16:09;;;;;;;7.35;4.10;;;12.00;99.90;;;;;;5048972;28;20195;-78
2022/06/21 04:18:55;;;;;;;5.63;3.95;;;12.20;99.90;;;;;;5054693;28;20045;-79
2022/06/21 04:21:21;;;;;;;5.97;4.00;;;12.00;99.90;;;;;;5054483;28;20101;-80
2022/06/21 04:23:49;;;;;;;6.53;3.83;;;12.00;99.90;;;;;;5055071;28;20044;-79
2022/06/21 04:26:35;;;;;;;7.95;3.88;;;12.00;99.90;;;;;;5055487;28;20114;-79
2022/06/21 04:29:35;;;;;;;5.68;3.67;;;12.00;99.90;;;;;;5052934;28;20038;-80
2022/06/21 04:32:25;;;;;;;7.82;4.35;;;12.00;99.90;;;;;;4987479;28;20048;-79
2022/06/21 04:34:58;;;;;;;7.38;3.88;;;12.00;99.90;;;;;;5052800;28;20055;-79
2022/06/21 04:37:33;;;;;;;6.47;3.60;;;12.00;99.90;;;;;;5055194;28;20041;-80
2022/06/21 04:40:06;;;;;;;7.32;3.35;;;12.00;99.90;;;;;;5055411;28;20025;-79
2022/06/21 04:42:39;;;;;;;4.63;3.60;;;12.10;99.90;;;;;;5054745;28;20124;-80
2022/06/21 04:45:07;;;;;;;8.30;3.97;;;12.00;99.90;;;;;;5052600;28;20051;-80
2022/06/21 04:48:02;;;;;;;6.55;4.32;;;12.30;99.90;;;;;;5054094;28;20045;-80
2022/06/21 04:50:42;;;;;;;5.60;3.85;;;12.40;99.90;;;;;;5055102;28;20037;-80
2022/06/21 04:53:23;;;;;;;6.43;4.45;;;12.40;99.90;;;;;;5054911;28;20426;-80
2022/06/21 04:56:12;;;;;;;5.75;3.97;;;12.50;99.90;;;;;;5052889;28;20120;-79
2022/06/21 04:58:37;;;;;;;6.03;4.20;;;12.70;99.90;;;;;;5055764;28;20053;-80
2022/06/21 05:01:29;;;;;;;7.65;4.28;;;12.90;99.90;;;;;;5054236;28;20040;-80
2022/06/21 05:03:51;;;;;;;6.75;3.88;;;13.00;99.90;;;;;;5052691;28;20084;-80
2022/06/21 05:06:18;;;;;;;6.93;4.25;;;13.10;99.90;;;;;;5053612;28;20045;-80
2022/06/21 05:08:47;;;;;;;6.55;4.40;;;13.10;99.90;;;;;;5051553;28;20040;-80
2022/06/21 05:11:13;;;;;;;7.65;4.40;;;13.20;99.90;;;;;;5053550;28;20143;-81
2022/06/21 05:13:42;;;;;;;6.43;4.30;;;13.30;99.90;;;;;;5053546;28;20087;-80
2022/06/21 05:16:22;;;;;;;7.13;4.00;;;13.50;99.90;;;;;;5053277;28;20076;-80
2022/06/21 05:18:54;;;;;;;6.50;4.35;;;13.60;99.90;;;;;;5054083;28;20128;-80
2022/06/21 05:21:31;;;;;;;7.68;4.80;;;13.70;99.90;;;;;;5053319;28;20403;-80
2022/06/21 05:23:58;;;;;;;6.68;4.13;;;13.80;99.90;;;;;;5053458;28;20044;-81
2022/06/21 05:26:33;;;;;;;8.68;4.32;;;13.90;99.90;;;;;;5052992;28;20568;-80
2022/06/21 05:29:07;;;;;;;6.13;4.50;;;14.00;99.90;;;;;;5054075;28;20436;-80
2022/06/21 05:31:38;;;;;;;7.95;4.40;;;14.10;99.90;;;;;;5054638;28;20190;-80
2022/06/21 05:34:16;;;;;;;6.82;4.20;;;14.20;99.90;;;;;;5052840;28;20494;-82
2022/06/21 05:36:57;;;;;;;9.13;5.10;;;14.40;99.90;;;;;;5053234;28;20049;-79
2022/06/21 05:39:30;;;;;;;9.15;4.90;;;14.40;99.90;;;;;;5054783;28;20045;-80
2022/06/21 05:41:57;;;;;;;10.23;4.85;;;14.40;99.90;;;;;;5054204;28;20041;-82
2022/06/21 05:44:43;;;;;;;9.30;5.10;;;14.50;99.90;;;;;;5052310;28;20124;-81
2022/06/21 05:47:34;;;;;;;8.20;5.03;;;14.70;99.90;;;;;;5037299;28;20083;-81
2022/06/21 05:50:03;;;;;;;8.90;4.65;;;14.80;99.90;;;;;;5047043;28;20071;-80
2022/06/21 05:52:32;;;;;;;10.95;4.90;;;14.80;99.90;;;;;;5035818;28;20137;-79
2022/06/21 05:55:07;;;;;;;8.10;4.93;;;14.90;99.90;;;;;;5051259;28;20399;-79
2022/06/21 05:57:53;;;;;;;10.88;5.20;;;14.90;99.90;;;;;;5053423;28;20080;-79
2022/06/21 06:00:28;;;;;;;8.77;5.45;;;15.00;99.90;;;;;;5054330;28;20473;-78
2022/06/21 06:03:01;;;;;;;8.00;4.78;;;15.10;99.90;;;;;;5053159;28;20056;-80
2022/06/21 06:05:32;;;;;;;9.32;4.30;;;15.20;99.90;;;;;;5052138;28;20051;-80
2022/06/21 06:08:11;;;;;;;8.27;4.00;;;15.30;99.90;;;;;;5051872;28;20037;-80
2022/06/21 06:10:40;;;;;;;7.95;4.45;;;15.40;99.90;;;;;;5053378;28;20033;-79
2022/06/21 06:13:20;;;;;;;6.38;3.65;;;15.40;99.90;;;;;;5053377;28;20083;-79
2022/06/21 06:15:51;;;;;;;5.25;2.90;;;15.50;99.90;;;;;;5052697;28;20084;-79
2022/06/21 06:18:49;;;;;;;9.95;3.60;;;15.60;99.90;;;;;;5054088;28;20037;-80
2022/06/21 06:21:51;;;;;;;7.07;2.90;;;15.60;99.90;;;;;;5050389;28;20043;-79
2022/06/21 06:24:31;;;;;;;9.38;2.78;;;15.50;99.90;;;;;;5009391;28;20053;-80
2022/06/21 06:27:00;;;;;;;8.05;2.92;;;15.40;99.90;;;;;;5044414;28;20094;-79
2022/06/21 06:29:41;;;;;;;6.93;2.50;;;15.30;99.90;;;;;;5049790;28;20045;-78
2022/06/21 06:32:21;;;;;;;6.30;2.70;;;15.20;99.90;;;;;;5049763;28;20112;-79
2022/06/21 06:34:50;;;;;;;6.93;3.13;;;15.20;99.90;;;;;;5033436;28;20460;-80
2022/06/21 06:37:25;;;;;;;6.65;3.40;;;15.20;99.90;;;;;;5047995;28;20067;-78
2022/06/21 06:39:51;;;;;;;4.38;2.60;;;15.30;99.90;;;;;;5051275;28;20495;-80
2022/06/21 06:42:24;;;;;;;9.57;2.80;;;15.30;99.90;;;;;;5052392;28;20037;-79
2022/06/21 06:44:57;;;;;;;6.57;2.90;;;15.30;99.90;;;;;;5018704;28;20502;-79
2022/06/21 06:47:31;;;;;;;6.50;2.88;;;15.10;99.90;;;;;;5051606;28;20049;-79
2022/06/21 06:49:59;;;;;;;6.78;2.58;;;15.10;99.90;;;;;;5051750;28;20048;-78
2022/06/21 06:52:37;;;;;;;7.10;2.60;;;15.00;99.90;;;;;;5051038;28;20426;-78
2022/06/21 06:55:28;;;;;;;8.23;2.90;;;15.10;99.90;;;;;;5051033;28;20048;-80
2022/06/21 06:58:01;;;;;;;6.93;2.50;;;15.40;99.90;;;;;;5032527;28;20065;-80
2022/06/21 07:00:39;;;;;;;7.63;2.45;;;15.60;99.90;;;;;;5050461;28;20048;-78
2022/06/21 07:03:31;;;;;;;7.25;3.17;;;15.90;99.90;;;;;;5050083;28;20047;-80
2022/06/21 07:06:35;;;;;;;9.73;3.15;;;16.30;99.90;;;;;;5047356;28;20044;-79
2022/06/21 07:09:08;;;;;;;8.27;3.15;;;16.60;99.90;;;;;;5051329;28;20041;-80
2022/06/21 07:11:43;;;;;;;9.50;3.13;;;16.70;99.90;;;;;;5052373;28;20051;-78
2022/06/21 07:14:15;;;;;;;8.05;2.90;;;16.80;99.90;;;;;;5051512;28;20482;-79
2022/06/21 07:16:42;;;;;;;5.47;2.83;;;17.10;99.90;;;;;;5047697;28;20045;-79
2022/06/21 07:19:10;;;;;;;7.95;2.85;;;17.20;99.90;;;;;;5049963;28;20319;-79
2022/06/21 07:21:37;;;;;;;7.90;2.90;;;17.10;99.90;;;;;;5053753;28;20090;-79
2022/06/21 07:24:03;;;;;;;7.00;3.20;;;16.90;99.90;;;;;;5047289;28;20056;-79
2022/06/21 07:26:55;;;;;;;9.18;3.22;;;16.90;99.90;;;;;;5050452;28;20060;-79
2022/06/21 07:29:31;;;;;;;8.45;2.75;;;16.90;99.90;;;;;;5030999;28;20056;-78
2022/06/21 07:32:08;;;;;;;9.10;2.70;;;17.00;99.90;;;;;;5062111;28;20041;-79
2022/06/21 07:34:48;;;;;;;6.07;2.97;;;17.20;99.90;;;;;;5049040;28;20037;-78
2022/06/21 07:37:19;;;;;;;6.95;3.70;;;17.40;99.90;;;;;;5051069;28;20117;-79
2022/06/21 07:39:49;;;;;;;11.80;3.45;;;17.40;99.90;;;;;;5050273;28;20495;-78
2022/06/21 07:42:21;;;;;;;8.70;3.05;;;17.60;99.90;;;;;;5034353;28;20395;-78
2022/06/21 07:44:48;;;;;;;5.10;3.20;;;17.90;99.90;;;;;;5046914;28;20091;-78
2022/06/21 07:47:21;;;;;;;9.70;3.30;;;18.10;99.90;;;;;;5052745;28;20071;-79
2022/06/21 07:49:53;;;;;;;8.68;3.45;;;18.10;99.90;;;;;;5053686;28;20483;-78
2022/06/21 07:52:45;;;;;;;8.93;3.10;;;18.00;99.90;;;;;;5049795;28;20056;-79
2022/06/21 07:55:38;;;;;;;12.63;3.25;;;17.60;99.90;;;;;;5041984;28;20056;-79
2022/06/21 07:58:10;;;;;;;6.72;4.18;;;17.30;99.90;;;;;;5049787;28;20572;-79
2022/06/21 08:09:23;;;;;;;7.32;3.20;;;17.50;99.90;;;;;;5054183;28;20454;-78
2022/06/21 08:11:51;;;;;;;5.68;3.40;;;17.40;99.90;;;;;;5053254;28;20112;-79
2022/06/21 08:14:17;;;;;;;8.77;3.00;;;17.50;99.90;;;;;;5051713;28;20072;-79
2022/06/21 08:16:52;;;;;;;10.43;3.40;;;17.30;99.90;;;;;;5051541;28;20129;-79
2022/06/21 08:19:33;;;;;;;9.15;2.90;;;17.40;99.90;;;;;;5052581;28;20036;-79
2022/06/21 08:22:27;;;;;;;6.72;2.90;;;17.30;99.90;;;;;;5052048;28;20494;-79
2022/06/21 08:25:01;;;;;;;6.47;3.28;;;17.10;99.90;;;;;;5051272;28;20056;-79
2022/06/21 08:27:35;;;;;;;7.63;3.75;;;17.20;99.90;;;;;;5052336;28;20094;-79
2022/06/21 08:30:18;;;;;;;6.28;3.35;;;17.50;99.90;;;;;;5050650;28;20534;-79
2022/06/21 08:33:01;;;;;;;7.28;3.08;;;17.90;99.90;;;;;;5051084;28;20077;-79
2022/06/21 08:35:33;;;;;;;6.15;3.22;;;18.20;99.90;;;;;;5051754;28;20041;-79
2022/06/21 08:38:11;;;;;;;7.15;2.72;;;18.50;99.90;;;;;;5052616;28;20503;-80
2022/06/21 08:41:05;;;;;;;7.53;2.95;;;18.60;99.90;;;;;;5052270;28;20076;-79
2022/06/21 08:43:43;;;;;;;;;;;18.40;99.90;;;;;;5051002;28;20044;-79
2022/06/21 08:46:58;;;;;;;7.75;3.00;;;18.50;99.90;;;;;;5055687;28;19943;-80
2022/06/21 08:50:01;;;;;;;7.57;3.50;;;18.30;99.90;;;;;;5038047;28;20487;-80
2022/06/21 08:52:29;;;;;;;7.60;3.22;;;18.20;99.90;;;;;;5037504;28;20103;-79
2022/06/21 08:55:17;;;;;;;7.07;3.22;;;18.20;99.90;;;;;;5054428;28;20053;-79
2022/06/21 08:58:04;;;;;;;7.05;3.20;;;18.20;99.90;;;;;;5053129;28;20106;-79
2022/06/21 09:01:08;;;;;;;4.93;3.38;;;18.20;99.90;;;;;;5057317;28;20052;-80
2022/06/21 09:04:13;;;;;;;5.13;3.15;;;18.30;99.90;;;;;;4976808;28;20150;-79
2022/06/21 09:06:44;;;;;;;7.55;3.72;;;18.60;99.90;;;;;;4992756;28;20050;-79
2022/06/21 09:09:29;;;;;;;6.07;3.40;;;18.70;99.90;;;;;;5039356;28;20124;-79
2022/06/21 09:12:14;;;;;;;4.78;3.22;;;18.90;99.90;;;;;;5052830;28;20048;-79
2022/06/21 09:15:00;;;;;;;11.30;3.42;;;19.20;99.90;;;;;;5055275;28;20059;-79
2022/06/21 09:17:49;;;;;;;3.38;2.17;;;19.30;99.90;;;;;;5056350;28;20453;-78
2022/06/21 09:20:52;;;;;;;5.38;2.08;;;19.30;99.90;;;;;;5056448;28;20139;-79
2022/06/21 09:23:33;;;;;;;4.68;2.10;;;19.10;99.90;;;;;;5053881;28;20044;-79
2022/06/21 09:26:07;;;;;;;5.65;2.47;;;19.10;99.90;;;;;;5056424;28;20399;-79
2022/06/21 09:29:00;;;;;;;6.43;2.42;;;18.80;99.90;;;;;;5054345;28;20394;-78
2022/06/21 09:31:36;;;;;;;5.80;2.28;;;18.50;99.90;;;;;;5056779;28;20037;-77
2022/06/21 09:34:12;;;;;;;8.30;2.53;;;18.50;99.90;;;;;;5054192;28;20098;-78
2022/06/21 09:36:59;;;;;;;4.15;2.00;;;18.70;99.90;;;;;;5054021;28;20052;-79
2022/06/21 09:39:55;;;;;;;6.45;2.00;;;19.00;99.90;;;;;;5053521;28;20068;-79
2022/06/21 09:42:38;;;;;;;6.70;2.03;;;19.40;99.90;;;;;;5055511;28;20120;-79
2022/06/21 09:45:18;;;;;;;8.38;1.92;;;19.50;99.90;;;;;;5053878;28;20080;-79
2022/06/21 09:47:50;;;;;;;5.65;2.30;;;19.70;99.90;;;;;;5055703;28;20518;-79
2022/06/21 09:50:47;;;;;;;5.97;2.60;;;19.80;99.90;;;;;;5056414;28;20059;-78
2022/06/21 09:53:44;;;;;;;3.03;1.88;;;20.10;99.90;;;;;;5055224;28;20095;-78
2022/06/21 09:56:24;;;;;;;4.45;1.70;;;20.10;99.90;;;;;;5055157;28;20105;-78
2022/06/21 09:59:14;;;;;;;4.20;1.63;;;20.20;99.90;;;;;;5055957;28;20045;-80
2022/06/21 10:02:04;;;;;;;4.25;1.77;;;20.20;99.90;;;;;;5053611;28;20414;-79
2022/06/21 10:04:50;;;;;;;4.57;2.08;;;20.20;99.90;;;;;;5053151;28;20091;-79
2022/06/21 10:07:51;;;;;;;4.43;1.95;;;20.20;99.90;;;;;;5055675;28;20040;-80
2022/06/21 10:10:41;;;;;;;6.40;1.98;;;20.50;99.90;;;;;;5053849;28;20440;-79
2022/06/21 10:13:39;;;;;;;6.60;2.05;;;20.70;99.90;;;;;;5058526;28;20036;-80
2022/06/21 10:16:23;;;;;;;3.25;1.70;;;20.70;99.90;;;;;;5059229;28;20074;-78
2022/06/21 10:18:58;;;;;;;3.90;1.83;;;20.40;99.90;;;;;;5035294;28;20041;-79
2022/06/21 10:22:05;;;;;;;3.28;1.38;;;20.70;99.90;;;;;;5045192;28;20036;-79
2022/06/21 10:24:39;;;;;;;4.20;1.60;;;20.90;99.90;;;;;;5053184;28;20434;-79
2022/06/21 10:27:20;;;;;;;4.55;1.90;;;21.20;99.90;;;;;;5054535;28;20056;-81
2022/06/21 10:29:58;;;;;;;5.97;1.67;;;21.40;99.90;;;;;;5055873;28;20075;-79
2022/06/21 10:32:45;;;;;;;4.82;1.75;;;21.10;99.90;;;;;;5056693;28;20403;-78
2022/06/21 10:35:44;;;;;;;5.50;1.40;;;20.80;99.90;;;;;;5053849;28;20041;-79
2022/06/21 10:38:16;;;;;;;6.68;1.80;;;20.30;99.90;;;;;;5052607;28;20061;-78
2022/06/21 10:41:29;;;;;;;4.80;1.48;;;20.40;99.90;;;;;;5054678;28;20108;-79
2022/06/21 10:44:20;;;;;;;5.40;1.50;;;20.50;99.90;;;;;;5048685;28;20163;-79
2022/06/21 10:46:58;;;;;;;3.90;1.60;;;20.40;99.90;;;;;;5055658;28;20086;-80
2022/06/21 10:49:53;;;;;;;2.47;1.30;;;20.60;99.90;;;;;;5053729;28;20112;-79
2022/06/21 10:52:31;;;;;;;6.30;1.33;;;20.90;99.90;;;;;;5052501;28;20045;-78
2022/06/21 10:55:18;;;;;;;2.97;1.40;;;21.20;99.90;;;;;;5053522;28;20040;-80
2022/06/21 10:58:08;;;;;;;4.85;1.48;;;21.60;99.90;;;;;;5053465;28;20047;-79
2022/06/21 11:01:21;;;;;;;3.85;1.40;;;22.00;99.90;;;;;;5051501;28;20126;-78
2022/06/21 11:04:05;;;;;;;2.45;1.40;;;22.30;99.90;;;;;;5053339;28;20055;-80
2022/06/21 11:06:41;;;;;;;4.35;1.10;;;22.40;99.90;;;;;;5057325;28;20048;-78
2022/06/21 11:09:14;;;;;;;3.22;1.20;;;22.40;99.90;;;;;;5053058;28;20051;-79
2022/06/21 11:11:55;;;;;;;3.33;1.15;;;22.30;99.90;;;;;;5053547;28;20053;-79
2022/06/21 11:14:40;;;;;;;3.28;1.30;;;22.40;99.90;;;;;;5052570;28;20064;-79
2022/06/21 11:17:40;;;;;;;3.95;1.33;;;22.60;99.90;;;;;;5054815;28;20053;-78
2022/06/21 11:20:12;;;;;;;2.78;1.15;;;22.80;99.20;;;;;;5035198;28;20045;-80
2022/06/21 11:22:43;;;;;;;4.68;1.17;;;22.80;99.60;;;;;;5049699;28;20449;-80
2022/06/21 11:25:30;;;;;;;6.00;1.20;;;23.00;99.20;;;;;;5052739;28;20132;-80
2022/06/21 11:27:55;;;;;;;3.70;1.20;;;23.20;99.20;;;;;;5059747;28;20041;-80
2022/06/21 11:30:49;;;;;;;5.93;1.40;;;23.50;99.10;;;;;;5056818;28;20044;-79
2022/06/21 11:33:25;;;;;;;;;;;23.40;97.70;;;;;;5054179;28;20068;-79
2022/06/21 11:36:25;;;;;;;5.78;1.30;;;23.20;98.80;;;;;;5053400;28;19924;-78
2022/06/21 11:39:32;;;;;;;3.15;1.50;;;23.30;97.20;;;;;;5048211;28;20065;-78
2022/06/21 11:42:12;;;;;;;3.55;1.50;;;22.90;95.90;;;;;;5055110;28;20525;-79
2022/06/21 11:44:49;;;;;;;3.15;1.25;;;23.10;97.10;;;;;;5052623;28;20085;-79
2022/06/21 11:47:41;;;;;;;3.58;1.30;;;23.10;97.40;;;;;;5051199;28;20055;-79
2022/06/21 11:50:23;;;;;;;2.97;1.30;;;23.00;97.10;;;;;;5054394;28;20043;-78
2022/06/21 11:53:05;;;;;;;2.85;1.10;;;23.40;97.90;;;;;;5035407;28;20049;-79
2022/06/21 11:55:51;;;;;;;4.13;1.55;;;23.90;97.20;;;;;;5047126;28;20499;-79
2022/06/21 11:58:28;;;;;;;5.78;1.30;;;24.20;96.40;;;;;;5052466;28;20051;-78
2022/06/21 12:01:25;;;;;;;5.95;1.35;;;24.20;95.80;;;;;;5052710;28;20041;-79
2022/06/21 12:04:35;;;;;;;2.97;1.30;;;24.50;95.00;;;;;;5053701;28;20151;-78
2022/06/21 12:07:03;;;;;;;3.90;1.33;;;24.80;95.90;;;;;;5053019;28;20071;-78
2022/06/21 12:09:42;;;;;;;3.33;1.40;;;24.70;95.70;;;;;;5051063;28;20041;-78
2022/06/21 12:12:24;;;;;;;3.72;1.10;;;24.20;94.40;;;;;;5052916;28;20037;-79
2022/06/21 12:15:05;;;;;;;3.70;1.15;;;24.50;95.40;;;;;;5056597;28;20049;-79
2022/06/21 12:17:50;;;;;;;3.72;1.30;;;24.90;95.30;;;;;;5053585;28;20067;-79
2022/06/21 12:20:21;;;;;;;3.35;1.27;;;25.30;95.40;;;;;;5052171;28;20514;-79
2022/06/21 12:22:53;;;;;;;5.25;1.58;;;25.50;95.00;;;;;;5052502;28;20040;-79
2022/06/21 12:25:20;;;;;;;2.63;1.02;;;25.40;94.30;;;;;;5053865;28;20131;-79
2022/06/21 12:27:47;;;;;;;3.95;1.20;;;25.10;94.00;;;;;;5054462;28;20502;-79
2022/06/21 12:30:31;;;;;;;2.88;1.25;;;25.00;94.30;;;;;;5056689;28;20067;-79
2022/06/21 12:33:01;;;;;;;4.20;1.30;;;25.10;93.50;;;;;;5055831;28;20045;-80
2022/06/21 12:35:51;;;;;;;4.95;1.30;;;25.30;93.90;;;;;;5057288;28;20513;-78
2022/06/21 12:38:23;;;;;;;3.30;1.20;;;25.00;93.30;;;;;;5057310;28;20069;-79
2022/06/21 12:41:20;;;;;;;3.90;1.30;;;25.20;93.60;;;;;;5037368;28;20041;-79
2022/06/21 12:44:13;;;;;;;3.75;1.13;;;25.60;93.70;;;;;;5047533;28;20099;-79
2022/06/21 12:47:10;;;;;;;4.35;1.42;;;25.60;93.00;;;;;;5058227;28;20085;-79
2022/06/21 12:49:44;;;;;;;3.33;1.30;;;25.80;92.90;;;;;;5057969;28;20033;-78
2022/06/21 12:52:27;;;;;;;3.78;1.10;;;25.80;91.00;;;;;;5054646;28;20036;-78
2022/06/21 12:55:17;;;;;;;2.50;1.20;;;25.40;91.00;;;;;;5054318;28;20045;-77
2022/06/21 12:58:06;;;;;;;4.75;1.30;;;25.40;92.10;;;;;;5055568;28;20049;-78
2022/06/21 13:00:47;;;;;;;5.65;1.80;;;25.80;90.60;;;;;;5054552;28;20095;-79
2022/06/21 13:03:49;;;;;;;4.40;1.38;;;25.50;91.10;;;;;;5056460;28;20045;-77
2022/06/21 13:06:30;;;;;;;2.83;1.05;;;25.90;90.40;;;;;;5056282;28;20427;-78
2022/06/21 13:09:31;;;;;;;3.58;1.10;;;26.10;91.40;;;;;;5055064;28;20037;-78
2022/06/21 13:11:56;;;;;;;1.60;1.10;;;26.50;91.90;;;;;;5055029;28;20041;-79
2022/06/21 13:14:55;;;;;;;2.65;1.17;;;26.40;91.90;;;;;;5054065;28;20112;-78
2022/06/21 13:17:58;;;;;;;3.58;1.15;;;26.40;91.40;;;;;;5055455;28;20112;-79
2022/06/21 13:20:54;;;;;;;3.17;1.10;;;26.50;89.40;;;;;;5056893;28;20048;-78
2022/06/21 13:23:38;;;;;;;3.75;1.15;;;26.10;87.90;;;;;;5056662;28;20123;-78
2022/06/21 13:26:22;;;;;;;6.78;1.50;;;26.10;90.40;;;;;;5055430;28;20037;-77
2022/06/21 13:29:12;;;;;;;3.42;1.00;;;25.70;89.20;;;;;;5054931;28;20033;-77
2022/06/21 13:31:46;;;;;;;2.80;1.10;;;25.30;89.10;;;;;;5054209;28;20068;-79
2022/06/21 13:34:26;;;;;;;;;;;24.90;90.00;;;;;;5053179;28;20051;-78
2022/06/21 13:36:55;;;;;;;5.40;1.30;;;25.10;90.40;;;;;;5053942;28;19920;-78
2022/06/21 13:39:43;;;;;;;4.53;1.48;;;25.10;90.30;;;;;;5054034;28;20048;-78
2022/06/21 13:42:37;;;;;;;4.57;1.45;;;25.00;90.40;;;;;;5015028;28;20045;-78
2022/06/21 13:45:21;;;;;;;3.75;1.60;;;24.90;89.60;;;;;;5043364;28;20099;-78
2022/06/21 13:48:02;;;;;;;3.95;1.50;;;24.90;90.50;;;;;;5054852;28;20434;-78
2022/06/21 13:50:36;;;;;;;4.55;1.50;;;24.80;91.30;;;;;;5054813;28;20045;-79
2022/06/21 13:53:37;;;;;;;4.68;1.63;;;24.60;91.10;;;;;;5053732;28;20045;-79
2022/06/21 13:56:48;;;;;;;4.47;1.50;;;24.60;90.60;;;;;;5052398;28;20053;-79
2022/06/21 13:59:21;;;;;;;5.13;1.70;;;24.70;90.20;;;;;;4992751;28;20049;-78
2022/06/21 14:01:58;;;;;;;6.07;1.70;;;24.30;90.50;;;;;;4978117;28;20042;-78
2022/06/21 14:04:27;;;;;;;6.15;2.00;;;24.30;91.00;;;;;;5023918;28;20571;-78